createdAt,value
2023-03-03T00:00:02.565Z,-0.79
2023-03-03T00:02:42.507Z,-0.76
2023-03-03T00:05:11.302Z,-0.73
2023-03-03T00:07:40.023Z,-0.70
2023-03-03T00:10:09.225Z,-0.77
2023-03-03T00:12:48.179Z,-0.62
2023-03-03T00:15:23.271Z,-0.63
2023-03-03T00:17:52.876Z,-0.66
2023-03-03T00:20:27.916Z,-0.61
2023-03-03T00:22:56.896Z,-0.56
2023-03-03T00:25:30.777Z,-0.48
2023-03-03T00:28:25.607Z,-0.39
2023-03-03T00:30:56.982Z,-0.32
2023-03-03T00:33:29.120Z,-0.32
2023-03-03T00:35:58.098Z,-0.20
2023-03-03T00:38:28.117Z,-0.10
2023-03-03T00:40:57.010Z,-0.06
2023-03-03T00:43:29.600Z,0.01
2023-03-03T00:45:59.233Z,0.17
2023-03-03T00:48:37.226Z,0.26
2023-03-03T00:51:24.212Z,0.35
2023-03-03T00:53:53.504Z,0.42
2023-03-03T00:56:22.290Z,0.50
2023-03-03T00:58:51.652Z,0.63
2023-03-03T01:01:23.701Z,0.64
2023-03-03T01:03:54.843Z,0.76
2023-03-03T01:06:23.638Z,0.81
2023-03-03T01:08:52.491Z,0.89
2023-03-03T01:11:25.198Z,0.97
2023-03-03T01:13:54.420Z,1.09
2023-03-03T01:16:23.430Z,1.20
2023-03-03T01:18:52.595Z,1.29
2023-03-03T01:21:21.491Z,1.47
2023-03-03T01:23:50.982Z,1.57
2023-03-03T01:26:20.761Z,1.63
2023-03-03T01:28:49.633Z,1.61
2023-03-03T01:31:19.362Z,1.56
2023-03-03T01:33:48.096Z,1.55
2023-03-03T01:36:16.834Z,1.57
2023-03-03T01:38:45.546Z,1.55
2023-03-03T01:41:14.436Z,1.55
2023-03-03T01:43:51.317Z,1.60
2023-03-03T01:46:42.803Z,1.81
2023-03-03T01:49:23.820Z,1.96
2023-03-03T01:52:03.384Z,1.97
2023-03-03T01:54:46.021Z,2.14
2023-03-03T01:57:22.450Z,2.32
2023-03-03T01:59:54.252Z,2.45
2023-03-03T02:02:25.339Z,2.48
2023-03-03T02:04:54.707Z,2.45
2023-03-03T02:07:28.630Z,2.31
2023-03-03T02:10:22.221Z,2.29
2023-03-03T02:12:50.927Z,2.31
2023-03-03T02:15:39.840Z,2.41
2023-03-03T02:18:20.990Z,2.54
2023-03-03T02:21:02.890Z,2.70
2023-03-03T02:23:59.450Z,2.91
2023-03-03T02:26:31.669Z,3.19
2023-03-03T02:29:05.800Z,3.49
2023-03-03T02:31:34.724Z,3.76
2023-03-03T02:34:03.725Z,4.01
2023-03-03T02:36:38.151Z,4.33
2023-03-03T02:39:17.110Z,4.72
2023-03-03T02:42:04.399Z,5.12
2023-03-03T02:44:40.260Z,5.46
2023-03-03T02:47:09.202Z,5.66
2023-03-03T02:49:38.246Z,6.03
2023-03-03T02:52:12.964Z,6.42
2023-03-03T02:54:43.714Z,6.65
2023-03-03T02:57:12.510Z,6.86
2023-03-03T02:59:41.286Z,7.15
2023-03-03T03:02:14.751Z,7.33
2023-03-03T03:04:44.078Z,7.11
2023-03-03T03:07:17.669Z,6.80
2023-03-03T03:09:46.425Z,6.53
2023-03-03T03:12:19.800Z,6.37
2023-03-03T03:14:51.698Z,6.31
2023-03-03T03:17:21.728Z,6.36
2023-03-03T03:19:51.438Z,6.38
2023-03-03T03:22:21.298Z,6.40
2023-03-03T03:24:50.666Z,6.48
2023-03-03T03:27:19.927Z,6.54
2023-03-03T03:29:50.161Z,6.71
2023-03-03T03:32:20.138Z,6.81
2023-03-03T03:34:49.215Z,6.90
2023-03-03T03:37:18.344Z,6.97
2023-03-03T03:39:48.203Z,7.00
2023-03-03T03:42:16.952Z,7.04
2023-03-03T03:44:45.860Z,7.08
2023-03-03T03:47:15.132Z,7.11
2023-03-03T03:49:44.314Z,7.03
2023-03-03T03:52:13.555Z,7.19
2023-03-03T03:54:42.478Z,7.41
2023-03-03T03:57:11.410Z,7.57
2023-03-03T03:59:40.836Z,7.80
2023-03-03T04:02:10.453Z,8.09
2023-03-03T04:04:42.317Z,8.28
2023-03-03T04:07:11.739Z,8.60
2023-03-03T04:09:40.948Z,8.66
2023-03-03T04:12:10.248Z,8.53
2023-03-03T05:19:46.598Z,7.76
2023-03-03T05:22:15.700Z,7.71
2023-03-03T05:24:44.541Z,7.70
2023-03-03T05:27:13.171Z,7.59
2023-03-03T05:29:41.989Z,7.42
2023-03-03T05:32:10.826Z,7.23
2023-03-03T05:34:39.587Z,7.30
2023-03-03T05:37:08.375Z,7.28
2023-03-03T05:39:37.326Z,7.42
2023-03-03T05:42:06.262Z,7.54
2023-03-03T05:44:34.990Z,7.72
2023-03-03T05:47:03.706Z,7.83
2023-03-03T05:49:32.645Z,7.83
2023-03-03T05:52:01.484Z,7.68
2023-03-03T05:54:30.227Z,7.47
2023-03-03T05:56:59.098Z,7.24
2023-03-03T05:59:28.173Z,7.13
2023-03-03T06:01:57.888Z,7.18
2023-03-03T06:04:26.879Z,7.18
2023-03-03T06:06:55.703Z,7.19
2023-03-03T06:09:24.524Z,7.23
2023-03-03T06:11:54.380Z,7.30
2023-03-03T06:14:25.963Z,7.26
2023-03-03T06:16:55.840Z,7.19
2023-03-03T06:19:25.025Z,7.24
2023-03-03T06:21:54.348Z,7.21
2023-03-03T06:24:25.829Z,7.23
2023-03-03T06:26:54.744Z,7.35
2023-03-03T06:29:23.562Z,7.51
2023-03-03T06:31:54.687Z,7.66
2023-03-03T06:34:24.369Z,7.89
2023-03-03T06:36:53.598Z,7.93
2023-03-03T06:39:22.365Z,8.11
2023-03-03T06:41:51.219Z,8.25
2023-03-03T06:44:21.260Z,8.40
2023-03-03T06:46:50.312Z,8.44
2023-03-03T06:49:19.209Z,8.35
2023-03-03T06:51:48.124Z,8.42
2023-03-03T06:54:21.469Z,8.44
2023-03-03T06:56:55.390Z,8.45
2023-03-03T06:59:25.441Z,8.57
2023-03-03T07:01:55.636Z,8.66
2023-03-03T07:04:35.015Z,8.81
2023-03-03T07:07:25.498Z,8.94
2023-03-03T07:09:56.781Z,8.99
2023-03-03T07:12:30.223Z,9.02
2023-03-03T07:15:19.119Z,9.00
2023-03-03T07:17:51.312Z,8.99
2023-03-03T07:20:22.234Z,9.01
2023-03-03T07:30:30.177Z,8.98
2023-03-03T07:33:00.159Z,8.88
2023-03-03T07:35:39.808Z,8.82
2023-03-03T07:38:41.065Z,8.72
2023-03-03T07:41:21.431Z,8.65
2023-03-03T07:44:14.235Z,8.61
2023-03-03T07:46:48.739Z,8.64
2023-03-03T07:49:38.447Z,8.68
2023-03-03T07:52:24.593Z,8.73
2023-03-03T07:54:57.929Z,8.68
2023-03-03T07:57:40.585Z,8.73
2023-03-03T08:00:19.210Z,8.70
2023-03-03T08:03:11.047Z,8.67
2023-03-03T08:05:43.196Z,8.61
2023-03-03T08:08:31.655Z,8.56
2023-03-03T08:11:02.248Z,8.52
2023-03-03T08:13:33.851Z,8.48
2023-03-03T08:16:03.948Z,8.39
2023-03-03T08:18:48.332Z,8.33
2023-03-03T08:21:27.694Z,8.27
2023-03-03T08:23:56.488Z,8.12
2023-03-03T08:26:26.842Z,8.04
2023-03-03T08:28:56.426Z,7.83
2023-03-03T08:31:40.220Z,7.83
2023-03-03T08:34:09.814Z,7.78
2023-03-03T08:36:38.651Z,7.75
2023-03-03T08:39:07.961Z,7.65
2023-03-03T08:41:36.660Z,7.64
2023-03-03T08:44:05.680Z,7.63
2023-03-03T08:46:34.510Z,7.60
2023-03-03T08:49:03.692Z,7.51
2023-03-03T08:51:34.767Z,7.41
2023-03-03T08:54:03.701Z,7.44
2023-03-03T08:56:32.752Z,7.40
2023-03-03T08:59:03.019Z,7.41
2023-03-03T09:01:33.607Z,7.34
2023-03-03T09:04:02.822Z,7.17
2023-03-03T09:06:31.552Z,7.39
2023-03-03T09:09:00.419Z,7.42
2023-03-03T09:11:30.554Z,7.28
2023-03-03T09:14:13.939Z,7.41
2023-03-03T09:16:54.665Z,7.39
2023-03-03T09:19:31.208Z,7.30
2023-03-03T09:22:19.165Z,7.18
2023-03-03T09:24:49.567Z,7.05
2023-03-03T09:27:27.195Z,6.98
2023-03-03T09:29:56.729Z,6.98
2023-03-03T09:32:41.047Z,6.92
2023-03-03T09:35:39.564Z,6.99
2023-03-03T09:38:27.389Z,6.96
2023-03-03T09:41:20.255Z,6.92
2023-03-03T09:44:05.125Z,6.82
2023-03-03T09:46:56.147Z,6.83
2023-03-03T09:50:00.262Z,6.79
2023-03-03T09:52:42.193Z,6.71
2023-03-03T09:55:36.949Z,6.64
2023-03-03T09:58:35.737Z,6.57
2023-03-03T10:01:17.239Z,6.55
2023-03-03T10:04:08.003Z,6.48
2023-03-03T10:07:13.430Z,6.45
2023-03-03T10:10:08.128Z,6.35
2023-03-03T10:12:47.513Z,6.16
2023-03-03T10:15:30.710Z,6.15
2023-03-03T10:18:47.538Z,6.12
2023-03-03T10:21:40.471Z,6.15
2023-03-03T10:24:17.772Z,6.23
2023-03-03T10:27:12.393Z,6.26
2023-03-03T10:30:14.369Z,6.07
2023-03-03T10:33:12.930Z,5.88
2023-03-03T10:36:17.872Z,5.84
2023-03-03T10:38:58.086Z,5.79
2023-03-03T10:41:48.561Z,5.61
2023-03-03T10:44:29.497Z,5.46
2023-03-03T10:47:07.268Z,5.38
2023-03-03T10:49:45.440Z,5.38
2023-03-03T10:52:24.116Z,5.40
2023-03-03T10:55:31.258Z,5.42
2023-03-03T10:58:43.494Z,5.37
2023-03-03T11:01:48.377Z,5.40
2023-03-03T11:04:46.517Z,5.44
2023-03-03T11:07:56.996Z,5.56
2023-03-03T11:10:47.312Z,5.65
2023-03-03T11:14:01.040Z,5.86
2023-03-03T11:16:52.079Z,6.05
2023-03-03T11:19:41.259Z,6.22
2023-03-03T11:22:28.292Z,6.24
2023-03-03T11:25:30.868Z,6.29
2023-03-03T11:28:41.056Z,6.29
2023-03-03T11:31:20.235Z,6.22
2023-03-03T11:33:58.337Z,6.14
2023-03-03T11:36:37.424Z,6.15
2023-03-03T11:39:28.113Z,6.13
2023-03-03T11:42:25.658Z,6.16
2023-03-03T11:45:03.088Z,6.16
2023-03-03T11:47:50.612Z,6.16
2023-03-03T11:50:28.003Z,6.25
2023-03-03T11:53:23.587Z,6.24
2023-03-03T11:56:05.799Z,6.22
2023-03-03T11:58:59.065Z,6.09
2023-03-03T12:01:48.047Z,5.98
2023-03-03T12:04:23.020Z,5.80
2023-03-03T12:07:19.090Z,5.68
2023-03-03T12:09:51.202Z,5.56
2023-03-03T12:12:36.391Z,5.47
2023-03-03T12:15:25.778Z,5.30
2023-03-03T12:18:13.194Z,5.06
2023-03-03T12:20:47.832Z,4.82
2023-03-03T12:23:22.739Z,4.60
2023-03-03T12:26:23.550Z,4.42
2023-03-03T12:29:05.934Z,4.37
2023-03-03T12:31:53.309Z,4.32
2023-03-03T12:34:39.222Z,4.34
2023-03-03T12:37:32.036Z,4.39
2023-03-03T12:40:17.604Z,4.38
2023-03-03T12:43:25.754Z,4.44
2023-03-03T12:46:11.887Z,4.54
2023-03-03T12:48:45.938Z,4.52
2023-03-03T12:51:27.930Z,4.56
2023-03-03T12:54:21.457Z,4.59
2023-03-03T12:56:56.066Z,4.43
2023-03-03T12:59:59.363Z,4.27
2023-03-03T13:02:41.926Z,4.11
2023-03-03T13:05:22.499Z,3.96
2023-03-03T13:08:09.381Z,3.73
2023-03-03T13:10:43.697Z,3.53
2023-03-03T13:13:26.856Z,3.28
2023-03-03T13:16:16.992Z,3.16
2023-03-03T13:18:49.329Z,2.88
2023-03-03T13:21:37.386Z,2.80
2023-03-03T13:24:06.127Z,2.79
2023-03-03T13:26:45.685Z,2.75
2023-03-03T13:29:23.987Z,2.73
2023-03-03T13:32:19.639Z,2.71
2023-03-03T13:35:05.399Z,2.63
2023-03-03T13:37:44.100Z,2.65
2023-03-03T13:40:24.467Z,2.63
2023-03-03T13:43:11.135Z,2.68
2023-03-03T13:45:48.784Z,2.68
2023-03-03T13:48:48.736Z,2.72
2023-03-03T13:51:54.836Z,2.68
2023-03-03T13:54:52.190Z,2.63
2023-03-03T13:57:43.725Z,2.53
2023-03-03T14:00:22.521Z,2.44
2023-03-03T14:03:02.303Z,2.46
2023-03-03T14:05:49.137Z,2.35
2023-03-03T14:09:05.931Z,2.36
2023-03-03T14:11:47.342Z,2.39
2023-03-03T14:14:48.358Z,2.33
2023-03-03T14:17:37.330Z,2.33
2023-03-03T14:20:28.610Z,2.30
2023-03-03T14:23:04.642Z,2.27
2023-03-03T14:25:55.038Z,2.25
2023-03-03T14:28:29.846Z,2.34
2023-03-03T14:31:00.627Z,2.35
2023-03-03T14:33:32.909Z,2.44
2023-03-03T14:36:04.948Z,2.44
2023-03-03T14:38:33.948Z,2.44
2023-03-03T14:41:14.437Z,2.39
2023-03-03T14:44:27.033Z,2.23
2023-03-03T14:47:06.854Z,1.96
2023-03-03T14:49:40.077Z,1.97
2023-03-03T14:52:18.190Z,1.86
2023-03-03T14:55:01.826Z,1.70
2023-03-03T14:57:47.438Z,1.74
2023-03-03T15:00:17.706Z,1.66
2023-03-03T15:03:09.615Z,1.60
2023-03-03T15:05:48.922Z,1.58
2023-03-03T15:08:31.628Z,1.63
2023-03-03T15:11:18.515Z,1.63
2023-03-03T15:13:47.736Z,1.56
2023-03-03T15:16:25.862Z,1.57
2023-03-03T15:19:21.934Z,1.55
2023-03-03T15:22:05.104Z,1.51
2023-03-03T15:24:41.988Z,1.46
2023-03-03T15:27:22.149Z,1.39
2023-03-03T15:30:13.472Z,1.23
2023-03-03T15:33:14.854Z,1.22
2023-03-03T15:36:05.289Z,1.10
2023-03-03T15:38:52.599Z,1.08
2023-03-03T15:41:27.201Z,1.00
2023-03-03T15:44:36.698Z,0.91
2023-03-03T15:47:31.970Z,0.89
2023-03-03T15:50:27.215Z,1.25
2023-03-03T15:53:08.653Z,1.69
2023-03-03T15:56:03.549Z,2.30
2023-03-03T15:58:56.803Z,2.68
2023-03-03T16:01:34.972Z,2.87
2023-03-03T16:04:15.721Z,2.94
2023-03-03T16:06:51.266Z,2.94
2023-03-03T16:10:02.643Z,2.87
2023-03-03T16:12:47.014Z,2.81
2023-03-03T16:15:37.934Z,2.74
2023-03-03T16:18:19.327Z,2.62
2023-03-03T16:20:48.254Z,2.48
2023-03-03T16:23:32.296Z,2.27
2023-03-03T16:26:22.264Z,2.11
2023-03-03T16:29:04.594Z,2.01
2023-03-03T16:32:00.196Z,1.90
2023-03-03T16:35:01.392Z,1.82
2023-03-03T16:37:49.068Z,1.72
2023-03-03T16:40:28.982Z,1.60
2023-03-03T16:43:07.227Z,1.58
2023-03-03T16:45:39.755Z,1.59
2023-03-03T16:48:31.422Z,1.56
2023-03-03T16:51:30.400Z,1.59
2023-03-03T16:54:31.200Z,1.50
2023-03-03T16:57:20.145Z,1.32
2023-03-03T17:00:04.635Z,1.26
2023-03-03T17:02:55.683Z,1.26
2023-03-03T17:05:42.502Z,1.27
2023-03-03T17:08:13.995Z,1.24
2023-03-03T17:11:03.365Z,1.20
2023-03-03T17:13:43.981Z,1.18
2023-03-03T17:16:39.876Z,1.04
2023-03-03T17:19:40.885Z,0.87
2023-03-03T17:22:28.607Z,0.76
2023-03-03T17:25:23.986Z,0.66
2023-03-03T17:28:10.951Z,0.63
2023-03-03T17:30:46.754Z,0.60
2023-03-03T17:33:37.501Z,0.44
2023-03-03T17:36:23.161Z,0.27
2023-03-03T17:39:13.388Z,0.14
2023-03-03T17:41:48.214Z,0.09
2023-03-03T17:44:55.471Z,0.06
2023-03-03T17:47:52.762Z,0.09
2023-03-03T17:50:40.268Z,0.23
2023-03-03T17:53:39.876Z,0.28
2023-03-03T17:56:20.888Z,0.29
2023-03-03T17:59:37.115Z,0.26
2023-03-03T18:02:15.478Z,0.21
2023-03-03T18:05:02.820Z,0.17
2023-03-03T18:07:53.179Z,0.11
2023-03-03T18:10:37.124Z,0.12
2023-03-03T18:13:14.980Z,0.13
2023-03-03T18:16:10.408Z,0.15
2023-03-03T18:18:49.314Z,0.21
2023-03-03T18:21:24.383Z,0.33
2023-03-03T18:23:53.264Z,0.40
2023-03-03T18:26:39.168Z,0.49
2023-03-03T18:29:28.660Z,0.57
2023-03-03T18:32:00.805Z,0.65
2023-03-03T18:34:38.835Z,0.70
2023-03-03T18:37:33.031Z,0.71
2023-03-03T18:40:04.548Z,0.73
2023-03-03T18:42:40.533Z,0.73
2023-03-03T18:45:31.846Z,0.77
2023-03-03T18:48:14.405Z,0.82
2023-03-03T18:50:48.808Z,0.94
2023-03-03T18:53:24.888Z,0.98
2023-03-03T18:55:59.343Z,0.98
2023-03-03T18:58:30.857Z,0.88
2023-03-03T19:01:11.296Z,0.80
2023-03-03T19:03:49.227Z,0.76
2023-03-03T19:06:36.437Z,0.72
2023-03-03T19:09:12.945Z,0.65
2023-03-03T19:11:53.103Z,0.61
2023-03-03T19:14:29.574Z,0.59
2023-03-03T19:17:00.335Z,0.59
2023-03-03T19:19:35.456Z,0.56
2023-03-03T19:22:25.429Z,0.50
2023-03-03T19:25:27.700Z,0.45
2023-03-03T19:28:22.147Z,0.43
2023-03-03T19:30:58.219Z,0.39
2023-03-03T19:33:51.017Z,0.36
2023-03-03T19:36:39.541Z,0.33
2023-03-03T19:39:39.706Z,0.27
2023-03-03T19:42:31.711Z,0.26
2023-03-03T19:45:12.495Z,0.26
2023-03-03T19:47:48.920Z,0.29
2023-03-03T19:50:29.984Z,0.30
2023-03-03T19:53:11.548Z,0.31
2023-03-03T19:56:21.228Z,0.32
2023-03-03T19:59:11.277Z,0.35
2023-03-03T20:02:00.147Z,0.41
2023-03-03T20:04:51.355Z,0.48
2023-03-03T20:07:45.106Z,0.55
2023-03-03T20:10:16.782Z,0.46
2023-03-03T20:13:04.191Z,0.32
2023-03-03T20:15:53.645Z,0.24
2023-03-03T20:18:28.353Z,0.18
2023-03-03T20:21:10.500Z,0.10
2023-03-03T20:23:44.958Z,0.08
2023-03-03T20:26:17.375Z,0.02
2023-03-03T20:29:05.798Z,0.00
2023-03-03T20:31:46.623Z,-0.03
2023-03-03T20:34:39.797Z,-0.08
2023-03-03T20:37:31.825Z,-0.09
2023-03-03T20:40:08.039Z,-0.09
2023-03-03T20:43:06.874Z,-0.13
2023-03-03T20:45:52.882Z,-0.08
2023-03-03T20:48:43.240Z,0.05
2023-03-03T20:51:20.878Z,0.02
2023-03-03T20:53:57.419Z,0.22
2023-03-03T20:56:44.559Z,0.38
2023-03-03T20:59:20.154Z,0.49
2023-03-03T21:01:59.538Z,0.65
2023-03-03T21:04:31.842Z,0.80
2023-03-03T21:07:03.623Z,0.91
2023-03-03T21:09:37.941Z,0.97
2023-03-03T21:12:27.290Z,1.06
2023-03-03T21:15:05.401Z,1.11
2023-03-03T21:17:34.840Z,1.13
2023-03-03T21:20:26.702Z,1.16
2023-03-03T21:22:56.826Z,1.18
2023-03-03T21:25:52.812Z,1.17
2023-03-03T21:28:21.744Z,1.20
2023-03-03T21:31:06.814Z,1.21
2023-03-03T21:33:48.952Z,1.24
2023-03-03T21:36:20.879Z,1.26
2023-03-03T21:38:50.477Z,1.27
2023-03-03T21:41:20.326Z,1.26
2023-03-03T21:43:52.272Z,1.30
2023-03-03T21:46:23.985Z,1.29
2023-03-03T21:48:53.207Z,1.33
2023-03-03T21:51:24.803Z,1.36
2023-03-03T21:53:53.522Z,1.33
2023-03-03T21:56:22.256Z,1.33
2023-03-03T21:58:50.890Z,1.35
2023-03-03T22:01:20.077Z,1.36
2023-03-03T22:03:49.043Z,1.37
2023-03-03T22:06:18.214Z,1.36
2023-03-03T22:08:46.906Z,1.35
2023-03-03T22:11:15.760Z,1.38
2023-03-03T22:13:44.544Z,1.35
2023-03-03T22:16:13.317Z,1.27
2023-03-03T22:18:42.181Z,1.16
2023-03-03T22:21:10.893Z,1.00
2023-03-03T22:23:39.545Z,0.95
2023-03-03T22:26:08.343Z,0.89
2023-03-03T22:28:37.168Z,0.81
2023-03-03T22:31:06.186Z,0.70
2023-03-03T22:33:35.444Z,0.55
2023-03-03T22:36:04.376Z,0.35
2023-03-03T22:38:34.160Z,0.29
2023-03-03T22:41:03.154Z,0.19
2023-03-03T22:43:31.972Z,0.07
2023-03-03T22:46:01.135Z,-0.02
2023-03-03T22:48:30.794Z,-0.04
2023-03-03T22:50:59.530Z,-0.08
2023-03-03T22:53:28.616Z,-0.11
2023-03-03T22:55:57.378Z,0.01
2023-03-03T22:58:26.761Z,0.05
2023-03-03T23:00:56.771Z,0.03
2023-03-03T23:03:26.035Z,0.03
2023-03-03T23:05:54.892Z,0.08
2023-03-03T23:08:23.651Z,0.11
2023-03-03T23:10:52.396Z,0.13
2023-03-03T23:13:21.114Z,-0.02
2023-03-03T23:15:49.898Z,0.05
2023-03-03T23:18:18.639Z,0.13
2023-03-03T23:20:47.408Z,0.15
2023-03-03T23:23:16.085Z,0.08
2023-03-03T23:25:44.758Z,0.22
2023-03-03T23:28:16.055Z,0.23
2023-03-03T23:30:45.250Z,0.36
2023-03-03T23:33:14.033Z,0.44
2023-03-03T23:35:42.996Z,0.42
2023-03-03T23:38:16.053Z,0.41
2023-03-03T23:40:47.349Z,0.43
2023-03-03T23:43:16.310Z,0.20
2023-03-03T23:45:45.130Z,0.14
2023-03-03T23:48:14.518Z,0.04
2023-03-03T23:50:43.217Z,-0.05
2023-03-03T23:53:11.997Z,-0.17
2023-03-03T23:55:40.716Z,-0.21
2023-03-03T23:58:10.366Z,-0.27
